createdAt,value
2022-08-03T00:04:46.394Z,22.10
2022-08-03T00:09:45.254Z,22.00
2022-08-03T00:14:44.299Z,21.90
2022-08-03T00:19:43.215Z,21.80
2022-08-03T00:24:42.403Z,21.80
2022-08-03T00:29:59.327Z,21.60
2022-08-03T00:34:58.621Z,21.60
2022-08-03T00:39:45.289Z,21.50
2022-08-03T00:44:44.314Z,21.40
2022-08-03T00:49:43.410Z,21.40
2022-08-03T00:54:45.526Z,21.30
2022-08-03T00:59:44.491Z,21.20
2022-08-03T01:04:43.507Z,21.20
2022-08-03T01:09:42.402Z,21.20
2022-08-03T01:14:41.311Z,21.10
2022-08-03T01:19:40.227Z,21.10
2022-08-03T01:24:40.930Z,21.00
2022-08-03T01:29:43.538Z,20.90
2022-08-03T01:34:42.507Z,20.80
2022-08-03T01:39:44.922Z,20.80
2022-08-03T01:44:43.373Z,20.70
2022-08-03T01:49:42.408Z,20.70
2022-08-03T01:54:41.288Z,20.60
2022-08-03T01:59:40.403Z,20.60
2022-08-03T02:04:39.420Z,20.50
2022-08-03T02:09:38.441Z,20.50
2022-08-03T02:14:37.444Z,20.40
2022-08-03T02:19:36.384Z,20.40
2022-08-03T02:24:35.474Z,20.30
2022-08-03T02:29:39.606Z,20.40
2022-08-03T02:34:35.535Z,20.40
2022-08-03T02:39:34.553Z,20.40
2022-08-03T02:44:33.586Z,20.30
2022-08-03T02:49:40.531Z,20.30
2022-08-03T02:54:33.429Z,20.30
2022-08-03T02:59:32.547Z,20.30
2022-08-03T03:04:33.045Z,20.30
2022-08-03T03:09:40.668Z,20.30
2022-08-03T03:14:34.139Z,20.20
2022-08-03T03:19:33.467Z,20.20
2022-08-03T03:24:32.628Z,20.20
2022-08-03T03:29:31.628Z,20.20
2022-08-03T03:34:32.553Z,20.20
2022-08-03T03:39:32.530Z,20.20
2022-08-03T03:44:34.901Z,20.20
2022-08-03T03:49:33.715Z,20.20
2022-08-03T03:54:32.429Z,20.20
2022-08-03T03:59:31.640Z,20.10
2022-08-03T04:04:50.684Z,20.00
2022-08-03T04:10:14.092Z,20.00
2022-08-03T04:15:08.602Z,20.00
2022-08-03T04:20:08.740Z,20.10
2022-08-03T04:25:07.876Z,20.10
2022-08-03T04:30:06.725Z,20.10
2022-08-03T04:35:05.654Z,20.20
2022-08-03T04:40:04.494Z,20.20
2022-08-03T04:45:03.493Z,20.30
2022-08-03T04:50:02.550Z,20.40
2022-08-03T04:55:01.531Z,20.50
2022-08-03T05:00:03.497Z,20.70
2022-08-03T05:05:04.630Z,21.00
2022-08-03T05:10:03.717Z,21.50
2022-08-03T05:15:02.680Z,22.20
2022-08-03T05:20:03.603Z,22.80
2022-08-03T05:25:01.687Z,23.20
2022-08-03T05:30:29.721Z,23.90
2022-08-03T05:35:01.488Z,24.00
2022-08-03T05:40:05.416Z,24.10
2022-08-03T05:45:12.444Z,24.00
2022-08-03T05:50:15.536Z,23.80
2022-08-03T05:55:14.428Z,23.70
2022-08-03T06:00:13.640Z,24.00
2022-08-03T06:05:14.696Z,23.90
2022-08-03T06:10:33.783Z,23.80
2022-08-03T06:15:14.433Z,23.60
2022-08-03T06:20:13.564Z,23.60
2022-08-03T06:25:13.036Z,23.50
2022-08-03T06:30:16.022Z,23.50
2022-08-03T06:35:16.016Z,23.60
2022-08-03T06:40:14.646Z,23.70
2022-08-03T06:45:15.563Z,23.80
2022-08-03T06:50:17.887Z,23.90
2022-08-03T06:55:15.488Z,24.00
2022-08-03T07:00:14.696Z,24.10
2022-08-03T07:05:14.644Z,24.20
2022-08-03T07:10:13.532Z,24.30
2022-08-03T07:15:20.478Z,24.40
2022-08-03T07:20:14.897Z,24.50
2022-08-03T07:25:13.628Z,24.70
2022-08-03T07:30:12.578Z,24.90
2022-08-03T07:35:22.715Z,25.10
2022-08-03T07:40:12.498Z,25.40
2022-08-03T07:45:16.742Z,25.80
2022-08-03T07:50:12.570Z,26.10
2022-08-03T07:55:11.609Z,26.40
2022-08-03T08:00:13.436Z,26.40
2022-08-03T08:05:12.620Z,26.50
2022-08-03T08:10:11.590Z,26.60
2022-08-03T08:15:11.611Z,26.60
2022-08-03T08:20:10.832Z,26.70
2022-08-03T08:25:09.744Z,26.80
2022-08-03T08:30:12.319Z,27.00
2022-08-03T08:35:09.594Z,27.10
2022-08-03T08:40:08.679Z,27.20
2022-08-03T08:45:08.406Z,27.30
2022-08-03T08:50:27.233Z,27.50
2022-08-03T08:55:11.688Z,27.60
2022-08-03T09:00:12.397Z,27.90
2022-08-03T09:05:12.524Z,28.00
2022-08-03T09:10:13.736Z,28.20
2022-08-03T09:15:17.226Z,28.30
2022-08-03T09:20:13.706Z,28.70
2022-08-03T09:25:24.206Z,29.00
2022-08-03T09:30:19.125Z,29.10
2022-08-03T09:35:14.758Z,29.20
2022-08-03T09:40:13.665Z,29.40
2022-08-03T09:45:11.719Z,29.60
2022-08-03T09:50:11.657Z,30.00
2022-08-03T09:56:21.156Z,30.20
2022-08-03T10:00:15.090Z,30.30
2022-08-03T10:05:19.651Z,30.40
2022-08-03T10:10:29.105Z,30.50
2022-08-03T10:16:22.329Z,30.70
2022-08-03T10:20:16.688Z,30.80
2022-08-03T10:27:56.763Z,30.90
2022-08-03T10:32:57.102Z,31.00
2022-08-03T10:37:56.938Z,31.10
2022-08-03T10:42:56.819Z,31.30
2022-08-03T10:47:55.800Z,31.40
2022-08-03T10:52:55.079Z,31.60
2022-08-03T10:57:58.315Z,31.90
2022-08-03T11:02:54.880Z,32.00
2022-08-03T11:07:54.759Z,32.20
2022-08-03T11:12:53.318Z,32.30
2022-08-03T11:17:56.158Z,32.90
2022-08-03T11:22:54.731Z,32.70
2022-08-03T11:27:53.803Z,32.70
2022-08-03T11:51:00.908Z,32.90
2022-08-03T11:55:59.011Z,33.10
2022-08-03T12:00:57.876Z,33.40
2022-08-03T12:05:56.816Z,33.40
2022-08-03T12:10:55.819Z,33.60
2022-08-03T12:15:55.033Z,33.60
2022-08-03T12:20:54.023Z,33.60
2022-08-03T12:25:52.823Z,33.40
2022-08-03T12:30:54.968Z,33.30
2022-08-03T12:35:53.880Z,33.40
2022-08-03T12:40:53.980Z,33.40
2022-08-03T12:45:52.971Z,33.60
2022-08-03T12:50:51.903Z,33.80
2022-08-03T12:56:05.079Z,34.10
2022-08-03T13:00:53.908Z,34.50
2022-08-03T13:05:52.948Z,34.70
2022-08-03T13:10:51.995Z,34.60
2022-08-03T13:15:51.903Z,34.60
2022-08-03T13:20:50.903Z,34.60
2022-08-03T13:25:55.585Z,34.20
2022-08-03T13:30:50.874Z,33.80
2022-08-03T13:35:50.217Z,33.70
2022-08-03T13:40:49.463Z,33.60
2022-08-03T13:45:53.600Z,33.60
2022-08-03T13:50:50.021Z,33.80
2022-08-03T13:55:48.931Z,33.90
2022-08-03T14:00:47.933Z,34.10
2022-08-03T14:05:47.730Z,34.30
2022-08-03T14:10:46.913Z,34.50
2022-08-03T14:15:49.789Z,34.40
2022-08-03T14:20:53.056Z,34.30
2022-08-03T14:25:52.370Z,34.50
2022-08-03T14:30:49.042Z,34.70
2022-08-03T14:35:48.030Z,34.90
2022-08-03T14:40:47.028Z,35.00
2022-08-03T14:45:45.944Z,35.00
2022-08-03T14:50:50.757Z,35.00
2022-08-03T14:55:50.471Z,35.00
2022-08-03T15:00:47.957Z,35.10
2022-08-03T15:05:47.007Z,35.10
2022-08-03T15:10:46.075Z,34.90
2022-08-03T15:15:47.284Z,35.00
2022-08-03T15:20:47.101Z,35.10
2022-08-03T15:26:04.010Z,35.30
2022-08-03T15:30:47.248Z,35.40
2022-08-03T15:35:46.962Z,35.50
2022-08-03T15:40:46.204Z,35.50
2022-08-03T15:45:45.103Z,35.50
2022-08-03T15:50:44.119Z,35.30
2022-08-03T15:55:43.837Z,35.20
2022-08-03T16:00:43.053Z,35.50
2022-08-03T16:05:42.054Z,35.60
2022-08-03T16:10:41.059Z,35.90
2022-08-03T16:15:40.035Z,37.00
2022-08-03T16:20:39.045Z,38.60
2022-08-03T16:25:40.123Z,39.70
2022-08-03T16:30:39.060Z,39.70
2022-08-03T16:35:38.152Z,41.40
2022-08-03T16:40:37.042Z,40.90
2022-08-03T16:45:36.165Z,38.70
2022-08-03T16:50:35.094Z,36.90
2022-08-03T16:55:48.799Z,37.30
2022-08-03T17:00:41.612Z,37.50
2022-08-03T17:05:46.912Z,36.40
2022-08-03T17:10:37.181Z,35.20
2022-08-03T17:15:38.336Z,34.30
2022-08-03T17:20:37.228Z,35.20
2022-08-03T17:26:01.520Z,35.00
2022-08-03T17:30:57.475Z,34.40
2022-08-03T17:35:58.720Z,33.80
2022-08-03T17:40:57.201Z,33.50
2022-08-03T17:45:56.191Z,33.30
2022-08-03T17:50:57.147Z,33.00
2022-08-03T17:55:59.614Z,32.70
2022-08-03T18:02:06.217Z,32.60
2022-08-03T18:06:16.222Z,32.40
2022-08-03T18:11:21.592Z,32.10
2022-08-03T18:16:21.258Z,31.80
2022-08-03T18:21:20.233Z,31.60
2022-08-03T18:26:21.247Z,31.50
2022-08-03T18:31:59.735Z,31.40
2022-08-03T18:36:30.466Z,31.30
2022-08-03T18:41:32.902Z,31.10
2022-08-03T18:46:24.200Z,30.80
2022-08-03T18:51:28.814Z,30.60
2022-08-03T18:56:24.325Z,30.30
2022-08-03T19:01:57.449Z,30.10
2022-08-03T19:06:24.402Z,29.80
2022-08-03T19:11:27.797Z,29.60
2022-08-03T19:16:24.244Z,29.40
2022-08-03T19:21:25.438Z,29.20
2022-08-03T19:26:30.426Z,29.00
2022-08-03T19:31:31.056Z,28.80
2022-08-03T19:36:29.607Z,28.60
2022-08-03T19:41:31.254Z,28.30
2022-08-03T19:46:30.854Z,28.20
2022-08-03T19:52:02.267Z,28.00
2022-08-03T19:56:31.480Z,27.90
2022-08-03T20:01:32.345Z,27.80
2022-08-03T20:06:33.387Z,27.70
2022-08-03T20:11:32.423Z,27.70
2022-08-03T20:16:33.465Z,27.50
2022-08-03T20:21:33.436Z,27.40
2022-08-03T20:26:34.461Z,27.20
2022-08-03T20:31:36.224Z,27.00
2022-08-03T20:36:34.448Z,26.90
2022-08-03T20:41:35.209Z,26.90
2022-08-03T20:46:50.345Z,26.90
2022-08-03T20:51:52.597Z,26.80
2022-08-03T20:56:37.444Z,26.80
2022-08-03T21:01:36.814Z,26.70
2022-08-03T21:06:37.342Z,26.60
2022-08-03T21:11:41.411Z,26.50
2022-08-03T21:16:37.441Z,26.40
2022-08-03T21:21:36.462Z,26.30
2022-08-03T21:26:35.460Z,26.30
2022-08-03T21:31:34.489Z,26.30
2022-08-03T21:36:33.516Z,26.30
2022-08-03T21:41:32.512Z,26.30
2022-08-03T21:46:31.315Z,26.30
2022-08-03T21:51:30.516Z,26.30
2022-08-03T21:56:29.528Z,26.30
2022-08-03T22:01:28.394Z,26.30
2022-08-03T22:06:29.423Z,26.30
2022-08-03T22:11:28.408Z,26.30
2022-08-03T22:16:27.648Z,26.30
2022-08-03T22:21:27.950Z,26.30
2022-08-03T22:26:32.510Z,26.30
2022-08-03T22:31:57.018Z,26.30
2022-08-03T22:36:29.339Z,26.20
2022-08-03T22:41:28.539Z,26.20
2022-08-03T22:46:27.551Z,26.20
2022-08-03T22:51:26.563Z,26.10
2022-08-03T22:56:25.367Z,26.10
2022-08-03T23:01:24.491Z,26.10
2022-08-03T23:06:23.386Z,26.10
2022-08-03T23:11:22.408Z,26.10
2022-08-03T23:16:28.624Z,26.00
2022-08-03T23:22:01.014Z,26.00
2022-08-03T23:26:23.439Z,26.00
2022-08-03T23:31:22.555Z,26.00
2022-08-03T23:36:30.305Z,26.00
2022-08-03T23:41:25.495Z,26.00
2022-08-03T23:46:24.512Z,26.00
2022-08-03T23:51:23.535Z,25.90
2022-08-03T23:56:22.512Z,25.90
